sensor_id;sensor_type;location;lat;lon;timestamp;P1;durP1;ratioP1;P2;durP2;ratioP2
58294;SDS011;45705;55.592;37.460;2023-04-25T00:02:22;19.35;;;7.53;;
58294;SDS011;45705;55.592;37.460;2023-04-25T00:04:47;11.18;;;7.13;;
58294;SDS011;45705;55.592;37.460;2023-04-25T00:07:14;16.80;;;7.28;;
58294;SDS011;45705;55.592;37.460;2023-04-25T00:09:39;12.75;;;6.80;;
58294;SDS011;45705;55.592;37.460;2023-04-25T00:12:05;13.98;;;6.32;;
58294;SDS011;45705;55.592;37.460;2023-04-25T00:14:31;21.08;;;6.90;;
58294;SDS011;45705;55.592;37.460;2023-04-25T00:16:59;14.75;;;6.70;;
58294;SDS011;45705;55.592;37.460;2023-04-25T00:19:25;16.92;;;6.85;;
58294;SDS011;45705;55.592;37.460;2023-04-25T00:21:54;17.90;;;6.70;;
58294;SDS011;45705;55.592;37.460;2023-04-25T00:24:20;11.77;;;7.05;;
58294;SDS011;45705;55.592;37.460;2023-04-25T00:26:46;20.15;;;7.32;;
58294;SDS011;45705;55.592;37.460;2023-04-25T00:29:12;14.60;;;7.65;;
58294;SDS011;45705;55.592;37.460;2023-04-25T00:31:37;18.30;;;7.30;;
58294;SDS011;45705;55.592;37.460;2023-04-25T00:34:03;17.80;;;6.85;;
58294;SDS011;45705;55.592;37.460;2023-04-25T00:36:29;20.17;;;7.38;;
58294;SDS011;45705;55.592;37.460;2023-04-25T00:38:55;13.63;;;7.40;;
58294;SDS011;45705;55.592;37.460;2023-04-25T00:41:21;14.20;;;7.63;;
58294;SDS011;45705;55.592;37.460;2023-04-25T00:43:47;15.70;;;7.05;;
58294;SDS011;45705;55.592;37.460;2023-04-25T00:46:13;15.40;;;7.45;;
58294;SDS011;45705;55.592;37.460;2023-04-25T00:48:39;19.48;;;7.85;;
58294;SDS011;45705;55.592;37.460;2023-04-25T00:51:05;16.15;;;7.47;;
58294;SDS011;45705;55.592;37.460;2023-04-25T00:53:31;15.02;;;7.38;;
58294;SDS011;45705;55.592;37.460;2023-04-25T00:55:57;16.60;;;7.47;;
58294;SDS011;45705;55.592;37.460;2023-04-25T00:58:24;14.93;;;8.00;;
58294;SDS011;45705;55.592;37.460;2023-04-25T01:00:50;22.52;;;7.53;;
58294;SDS011;45705;55.592;37.460;2023-04-25T01:03:17;14.55;;;7.22;;
58294;SDS011;45705;55.592;37.460;2023-04-25T01:05:46;16.02;;;7.68;;
58294;SDS011;45705;55.592;37.460;2023-04-25T01:08:13;12.43;;;6.80;;
58294;SDS011;45705;55.592;37.460;2023-04-25T01:10:39;18.63;;;7.88;;
58294;SDS011;45705;55.592;37.460;2023-04-25T01:13:05;19.98;;;8.15;;
58294;SDS011;45705;55.592;37.460;2023-04-25T01:15:32;13.80;;;8.27;;
58294;SDS011;45705;55.592;37.460;2023-04-25T01:17:58;19.20;;;7.93;;
58294;SDS011;45705;55.592;37.460;2023-04-25T01:20:26;17.63;;;8.90;;
58294;SDS011;45705;55.592;37.460;2023-04-25T01:25:21;20.95;;;8.45;;
58294;SDS011;45705;55.592;37.460;2023-04-25T01:27:48;15.60;;;8.30;;
58294;SDS011;45705;55.592;37.460;2023-04-25T01:30:14;15.18;;;8.13;;
58294;SDS011;45705;55.592;37.460;2023-04-25T01:32:41;17.52;;;8.52;;
58294;SDS011;45705;55.592;37.460;2023-04-25T01:35:08;14.38;;;8.32;;
58294;SDS011;45705;55.592;37.460;2023-04-25T01:37:37;22.98;;;8.98;;
58294;SDS011;45705;55.592;37.460;2023-04-25T01:40:08;16.70;;;7.75;;
58294;SDS011;45705;55.592;37.460;2023-04-25T01:42:36;20.95;;;7.63;;
58294;SDS011;45705;55.592;37.460;2023-04-25T01:45:05;16.48;;;7.25;;
58294;SDS011;45705;55.592;37.460;2023-04-25T01:47:32;16.38;;;7.50;;
58294;SDS011;45705;55.592;37.460;2023-04-25T01:50:00;16.65;;;7.63;;
58294;SDS011;45705;55.592;37.460;2023-04-25T01:52:28;16.60;;;7.55;;
58294;SDS011;45705;55.592;37.460;2023-04-25T01:54:54;15.20;;;7.88;;
58294;SDS011;45705;55.592;37.460;2023-04-25T01:57:21;18.63;;;7.60;;
58294;SDS011;45705;55.592;37.460;2023-04-25T01:59:47;29.38;;;8.07;;
58294;SDS011;45705;55.592;37.460;2023-04-25T02:02:35;18.10;;;7.25;;
58294;SDS011;45705;55.592;37.460;2023-04-25T02:05:03;23.13;;;7.57;;
58294;SDS011;45705;55.592;37.460;2023-04-25T02:07:31;19.85;;;7.53;;
58294;SDS011;45705;55.592;37.460;2023-04-25T02:09:57;17.05;;;8.43;;
58294;SDS011;45705;55.592;37.460;2023-04-25T02:12:25;17.30;;;7.28;;
58294;SDS011;45705;55.592;37.460;2023-04-25T02:15:16;12.88;;;7.20;;
58294;SDS011;45705;55.592;37.460;2023-04-25T02:18:08;14.10;;;7.40;;
58294;SDS011;45705;55.592;37.460;2023-04-25T02:20:35;11.48;;;7.07;;
58294;SDS011;45705;55.592;37.460;2023-04-25T02:23:02;14.88;;;7.53;;
58294;SDS011;45705;55.592;37.460;2023-04-25T02:25:28;21.45;;;7.63;;
58294;SDS011;45705;55.592;37.460;2023-04-25T02:27:54;16.63;;;8.02;;
58294;SDS011;45705;55.592;37.460;2023-04-25T02:30:19;17.38;;;8.18;;
58294;SDS011;45705;55.592;37.460;2023-04-25T02:32:45;17.25;;;7.80;;
58294;SDS011;45705;55.592;37.460;2023-04-25T02:35:12;16.27;;;8.20;;
58294;SDS011;45705;55.592;37.460;2023-04-25T02:37:38;14.45;;;8.07;;
58294;SDS011;45705;55.592;37.460;2023-04-25T02:40:05;23.70;;;8.40;;
58294;SDS011;45705;55.592;37.460;2023-04-25T02:42:31;20.13;;;8.80;;
58294;SDS011;45705;55.592;37.460;2023-04-25T02:44:57;19.23;;;8.55;;
58294;SDS011;45705;55.592;37.460;2023-04-25T02:47:23;25.67;;;8.60;;
58294;SDS011;45705;55.592;37.460;2023-04-25T02:49:49;15.52;;;8.05;;
58294;SDS011;45705;55.592;37.460;2023-04-25T02:52:15;21.52;;;9.60;;
58294;SDS011;45705;55.592;37.460;2023-04-25T02:54:42;24.90;;;8.35;;
58294;SDS011;45705;55.592;37.460;2023-04-25T02:57:08;19.95;;;10.05;;
58294;SDS011;45705;55.592;37.460;2023-04-25T02:59:36;16.42;;;9.63;;
58294;SDS011;45705;55.592;37.460;2023-04-25T03:02:02;17.70;;;10.60;;
58294;SDS011;45705;55.592;37.460;2023-04-25T03:04:28;21.83;;;9.70;;
58294;SDS011;45705;55.592;37.460;2023-04-25T03:06:54;29.67;;;10.05;;
58294;SDS011;45705;55.592;37.460;2023-04-25T03:09:21;20.05;;;9.60;;
58294;SDS011;45705;55.592;37.460;2023-04-25T03:11:47;22.48;;;10.35;;
58294;SDS011;45705;55.592;37.460;2023-04-25T03:14:13;28.70;;;9.55;;
58294;SDS011;45705;55.592;37.460;2023-04-25T03:16:39;20.63;;;10.73;;
58294;SDS011;45705;55.592;37.460;2023-04-25T03:19:05;21.27;;;10.13;;
58294;SDS011;45705;55.592;37.460;2023-04-25T03:21:32;23.35;;;10.40;;
58294;SDS011;45705;55.592;37.460;2023-04-25T03:24:00;18.83;;;10.30;;
58294;SDS011;45705;55.592;37.460;2023-04-25T03:26:27;19.95;;;9.85;;
58294;SDS011;45705;55.592;37.460;2023-04-25T03:28:53;17.73;;;9.95;;
58294;SDS011;45705;55.592;37.460;2023-04-25T03:31:19;20.33;;;10.30;;
58294;SDS011;45705;55.592;37.460;2023-04-25T03:33:45;22.15;;;9.90;;
58294;SDS011;45705;55.592;37.460;2023-04-25T03:36:11;17.02;;;10.65;;
58294;SDS011;45705;55.592;37.460;2023-04-25T03:38:37;20.92;;;10.27;;
58294;SDS011;45705;55.592;37.460;2023-04-25T03:41:04;21.90;;;10.30;;
58294;SDS011;45705;55.592;37.460;2023-04-25T03:43:53;16.80;;;10.15;;
58294;SDS011;45705;55.592;37.460;2023-04-25T03:46:19;25.15;;;10.75;;
58294;SDS011;45705;55.592;37.460;2023-04-25T03:48:46;16.83;;;9.55;;
58294;SDS011;45705;55.592;37.460;2023-04-25T03:51:18;22.63;;;9.82;;
58294;SDS011;45705;55.592;37.460;2023-04-25T03:53:44;20.08;;;9.40;;
58294;SDS011;45705;55.592;37.460;2023-04-25T03:56:18;15.63;;;9.05;;
58294;SDS011;45705;55.592;37.460;2023-04-25T04:01:15;14.60;;;8.57;;
58294;SDS011;45705;55.592;37.460;2023-04-25T04:03:41;12.52;;;8.13;;
58294;SDS011;45705;55.592;37.460;2023-04-25T04:06:07;19.27;;;8.80;;
58294;SDS011;45705;55.592;37.460;2023-04-25T04:08:40;14.20;;;8.63;;
58294;SDS011;45705;55.592;37.460;2023-04-25T04:11:07;13.93;;;8.10;;
58294;SDS011;45705;55.592;37.460;2023-04-25T04:13:33;16.55;;;8.35;;
58294;SDS011;45705;55.592;37.460;2023-04-25T04:16:00;19.38;;;9.05;;
58294;SDS011;45705;55.592;37.460;2023-04-25T04:18:26;14.73;;;8.52;;
58294;SDS011;45705;55.592;37.460;2023-04-25T04:20:55;16.40;;;8.75;;
58294;SDS011;45705;55.592;37.460;2023-04-25T04:23:21;20.42;;;8.50;;
58294;SDS011;45705;55.592;37.460;2023-04-25T04:25:51;18.30;;;8.35;;
58294;SDS011;45705;55.592;37.460;2023-04-25T04:28:38;21.05;;;8.98;;
58294;SDS011;45705;55.592;37.460;2023-04-25T04:31:22;15.23;;;8.65;;
58294;SDS011;45705;55.592;37.460;2023-04-25T04:33:49;23.52;;;7.80;;
58294;SDS011;45705;55.592;37.460;2023-04-25T04:36:16;20.77;;;8.40;;
58294;SDS011;45705;55.592;37.460;2023-04-25T04:38:45;34.47;;;8.25;;
58294;SDS011;45705;55.592;37.460;2023-04-25T04:41:19;16.02;;;7.93;;
58294;SDS011;45705;55.592;37.460;2023-04-25T04:43:53;19.08;;;7.75;;
58294;SDS011;45705;55.592;37.460;2023-04-25T04:46:37;19.02;;;8.40;;
58294;SDS011;45705;55.592;37.460;2023-04-25T04:49:36;14.45;;;8.38;;
58294;SDS011;45705;55.592;37.460;2023-04-25T04:52:05;19.73;;;8.20;;
58294;SDS011;45705;55.592;37.460;2023-04-25T04:54:49;15.82;;;7.85;;
58294;SDS011;45705;55.592;37.460;2023-04-25T04:57:32;19.55;;;7.65;;
58294;SDS011;45705;55.592;37.460;2023-04-25T05:00:20;20.52;;;8.27;;
58294;SDS011;45705;55.592;37.460;2023-04-25T05:03:02;11.43;;;7.63;;
58294;SDS011;45705;55.592;37.460;2023-04-25T05:05:54;12.65;;;7.40;;
58294;SDS011;45705;55.592;37.460;2023-04-25T05:08:37;14.85;;;7.40;;
58294;SDS011;45705;55.592;37.460;2023-04-25T05:11:25;16.27;;;7.30;;
58294;SDS011;45705;55.592;37.460;2023-04-25T05:14:17;18.95;;;7.95;;
58294;SDS011;45705;55.592;37.460;2023-04-25T05:16:56;17.33;;;7.65;;
58294;SDS011;45705;55.592;37.460;2023-04-25T05:19:38;19.00;;;8.50;;
58294;SDS011;45705;55.592;37.460;2023-04-25T05:22:22;18.50;;;7.50;;
58294;SDS011;45705;55.592;37.460;2023-04-25T05:25:11;18.83;;;7.90;;
58294;SDS011;45705;55.592;37.460;2023-04-25T05:27:46;15.40;;;7.80;;
58294;SDS011;45705;55.592;37.460;2023-04-25T05:30:43;14.07;;;7.97;;
58294;SDS011;45705;55.592;37.460;2023-04-25T05:33:21;17.30;;;7.80;;
58294;SDS011;45705;55.592;37.460;2023-04-25T05:35:47;18.73;;;7.72;;
58294;SDS011;45705;55.592;37.460;2023-04-25T05:38:13;17.33;;;8.15;;
58294;SDS011;45705;55.592;37.460;2023-04-25T05:40:59;21.83;;;7.93;;
58294;SDS011;45705;55.592;37.460;2023-04-25T05:43:42;18.50;;;7.63;;
58294;SDS011;45705;55.592;37.460;2023-04-25T05:46:35;18.92;;;7.35;;
58294;SDS011;45705;55.592;37.460;2023-04-25T05:49:20;17.73;;;7.85;;
58294;SDS011;45705;55.592;37.460;2023-04-25T05:52:19;17.40;;;7.35;;
58294;SDS011;45705;55.592;37.460;2023-04-25T05:55:07;19.95;;;8.55;;
58294;SDS011;45705;55.592;37.460;2023-04-25T05:57:33;17.27;;;8.65;;
58294;SDS011;45705;55.592;37.460;2023-04-25T05:59:59;21.55;;;9.27;;
58294;SDS011;45705;55.592;37.460;2023-04-25T06:02:38;25.45;;;8.35;;
58294;SDS011;45705;55.592;37.460;2023-04-25T06:05:04;22.30;;;8.57;;
58294;SDS011;45705;55.592;37.460;2023-04-25T06:07:30;17.23;;;7.50;;
58294;SDS011;45705;55.592;37.460;2023-04-25T06:09:56;13.80;;;7.22;;
58294;SDS011;45705;55.592;37.460;2023-04-25T06:12:22;18.13;;;7.00;;
58294;SDS011;45705;55.592;37.460;2023-04-25T06:14:50;20.58;;;7.70;;
58294;SDS011;45705;55.592;37.460;2023-04-25T06:17:16;20.35;;;7.30;;
58294;SDS011;45705;55.592;37.460;2023-04-25T06:19:42;17.42;;;7.35;;
58294;SDS011;45705;55.592;37.460;2023-04-25T06:22:07;17.77;;;6.97;;
58294;SDS011;45705;55.592;37.460;2023-04-25T06:24:37;24.77;;;6.68;;
58294;SDS011;45705;55.592;37.460;2023-04-25T06:27:03;18.27;;;6.30;;
58294;SDS011;45705;55.592;37.460;2023-04-25T06:29:29;12.35;;;6.32;;
58294;SDS011;45705;55.592;37.460;2023-04-25T06:31:55;11.98;;;5.35;;
58294;SDS011;45705;55.592;37.460;2023-04-25T06:34:21;13.25;;;5.15;;
58294;SDS011;45705;55.592;37.460;2023-04-25T06:36:47;14.27;;;5.68;;
58294;SDS011;45705;55.592;37.460;2023-04-25T06:41:40;16.10;;;5.15;;
58294;SDS011;45705;55.592;37.460;2023-04-25T06:44:13;10.18;;;4.70;;
58294;SDS011;45705;55.592;37.460;2023-04-25T06:46:48;10.38;;;4.20;;
58294;SDS011;45705;55.592;37.460;2023-04-25T06:49:14;7.38;;;4.28;;
58294;SDS011;45705;55.592;37.460;2023-04-25T06:51:41;15.43;;;4.22;;
58294;SDS011;45705;55.592;37.460;2023-04-25T06:54:07;12.45;;;4.45;;
58294;SDS011;45705;55.592;37.460;2023-04-25T06:56:39;8.18;;;3.95;;
58294;SDS011;45705;55.592;37.460;2023-04-25T06:59:12;11.15;;;4.18;;
58294;SDS011;45705;55.592;37.460;2023-04-25T07:01:39;10.88;;;4.93;;
58294;SDS011;45705;55.592;37.460;2023-04-25T07:04:14;10.73;;;4.40;;
58294;SDS011;45705;55.592;37.460;2023-04-25T07:06:45;12.27;;;4.55;;
58294;SDS011;45705;55.592;37.460;2023-04-25T07:09:14;8.82;;;4.50;;
58294;SDS011;45705;55.592;37.460;2023-04-25T07:11:44;9.13;;;3.88;;
58294;SDS011;45705;55.592;37.460;2023-04-25T07:14:09;10.05;;;3.95;;
58294;SDS011;45705;55.592;37.460;2023-04-25T07:16:35;6.85;;;3.90;;
58294;SDS011;45705;55.592;37.460;2023-04-25T07:19:01;8.25;;;3.97;;
58294;SDS011;45705;55.592;37.460;2023-04-25T07:21:27;8.82;;;4.15;;
58294;SDS011;45705;55.592;37.460;2023-04-25T07:23:54;10.60;;;4.50;;
58294;SDS011;45705;55.592;37.460;2023-04-25T07:26:25;8.40;;;4.70;;
58294;SDS011;45705;55.592;37.460;2023-04-25T07:29:09;14.93;;;5.13;;
58294;SDS011;45705;55.592;37.460;2023-04-25T07:31:35;7.80;;;4.40;;
58294;SDS011;45705;55.592;37.460;2023-04-25T07:34:01;10.30;;;4.13;;
58294;SDS011;45705;55.592;37.460;2023-04-25T07:36:27;14.73;;;4.07;;
58294;SDS011;45705;55.592;37.460;2023-04-25T07:38:52;8.68;;;4.60;;
58294;SDS011;45705;55.592;37.460;2023-04-25T07:41:18;11.32;;;3.92;;
58294;SDS011;45705;55.592;37.460;2023-04-25T07:43:44;14.65;;;4.80;;
58294;SDS011;45705;55.592;37.460;2023-04-25T07:46:10;9.40;;;4.75;;
58294;SDS011;45705;55.592;37.460;2023-04-25T07:48:36;9.82;;;5.45;;
58294;SDS011;45705;55.592;37.460;2023-04-25T07:51:02;9.48;;;5.15;;
58294;SDS011;45705;55.592;37.460;2023-04-25T07:53:30;12.75;;;5.70;;
58294;SDS011;45705;55.592;37.460;2023-04-25T07:56:03;11.77;;;5.93;;
58294;SDS011;45705;55.592;37.460;2023-04-25T07:58:31;11.63;;;4.43;;
58294;SDS011;45705;55.592;37.460;2023-04-25T08:03:44;12.93;;;4.53;;
58294;SDS011;45705;55.592;37.460;2023-04-25T08:06:19;11.70;;;3.97;;
58294;SDS011;45705;55.592;37.460;2023-04-25T08:09:03;8.63;;;4.10;;
58294;SDS011;45705;55.592;37.460;2023-04-25T08:11:35;9.38;;;4.15;;
58294;SDS011;45705;55.592;37.460;2023-04-25T08:14:01;9.52;;;4.20;;
58294;SDS011;45705;55.592;37.460;2023-04-25T08:16:27;10.30;;;4.32;;
58294;SDS011;45705;55.592;37.460;2023-04-25T08:18:53;10.90;;;4.55;;
58294;SDS011;45705;55.592;37.460;2023-04-25T08:21:19;17.50;;;4.30;;
58294;SDS011;45705;55.592;37.460;2023-04-25T08:23:45;11.93;;;4.38;;
58294;SDS011;45705;55.592;37.460;2023-04-25T08:26:18;16.38;;;4.55;;
58294;SDS011;45705;55.592;37.460;2023-04-25T08:28:45;15.25;;;4.57;;
58294;SDS011;45705;55.592;37.460;2023-04-25T08:31:11;7.88;;;4.32;;
58294;SDS011;45705;55.592;37.460;2023-04-25T08:33:47;7.47;;;3.78;;
58294;SDS011;45705;55.592;37.460;2023-04-25T08:36:23;9.50;;;4.20;;
58294;SDS011;45705;55.592;37.460;2023-04-25T08:38:49;6.95;;;3.83;;
58294;SDS011;45705;55.592;37.460;2023-04-25T08:41:18;8.05;;;4.43;;
58294;SDS011;45705;55.592;37.460;2023-04-25T08:43:46;10.82;;;4.10;;
58294;SDS011;45705;55.592;37.460;2023-04-25T08:46:14;11.20;;;3.88;;
58294;SDS011;45705;55.592;37.460;2023-04-25T08:48:55;9.40;;;3.67;;
58294;SDS011;45705;55.592;37.460;2023-04-25T08:51:25;7.22;;;3.53;;
58294;SDS011;45705;55.592;37.460;2023-04-25T08:53:53;7.70;;;3.60;;
58294;SDS011;45705;55.592;37.460;2023-04-25T08:56:19;10.10;;;3.80;;
58294;SDS011;45705;55.592;37.460;2023-04-25T08:58:48;7.68;;;3.85;;
58294;SDS011;45705;55.592;37.460;2023-04-25T09:01:16;13.45;;;3.67;;
58294;SDS011;45705;55.592;37.460;2023-04-25T09:03:48;5.82;;;4.38;;
58294;SDS011;45705;55.592;37.460;2023-04-25T09:06:14;9.35;;;4.32;;
58294;SDS011;45705;55.592;37.460;2023-04-25T09:08:42;12.88;;;4.82;;
58294;SDS011;45705;55.592;37.460;2023-04-25T09:11:08;12.63;;;4.22;;
58294;SDS011;45705;55.592;37.460;2023-04-25T09:13:35;8.80;;;4.15;;
58294;SDS011;45705;55.592;37.460;2023-04-25T09:16:21;9.20;;;4.70;;
58294;SDS011;45705;55.592;37.460;2023-04-25T09:18:59;10.88;;;4.10;;
58294;SDS011;45705;55.592;37.460;2023-04-25T09:21:26;6.15;;;4.00;;
58294;SDS011;45705;55.592;37.460;2023-04-25T09:23:53;6.40;;;3.70;;
58294;SDS011;45705;55.592;37.460;2023-04-25T09:26:19;13.68;;;4.50;;
58294;SDS011;45705;55.592;37.460;2023-04-25T09:28:46;9.90;;;4.10;;
58294;SDS011;45705;55.592;37.460;2023-04-25T09:31:27;7.07;;;4.20;;
58294;SDS011;45705;55.592;37.460;2023-04-25T09:34:00;7.03;;;3.63;;
58294;SDS011;45705;55.592;37.460;2023-04-25T09:36:27;10.23;;;3.53;;
58294;SDS011;45705;55.592;37.460;2023-04-25T09:39:03;9.75;;;4.00;;
58294;SDS011;45705;55.592;37.460;2023-04-25T09:44:07;6.38;;;3.53;;
58294;SDS011;45705;55.592;37.460;2023-04-25T09:46:36;10.18;;;5.32;;
58294;SDS011;45705;55.592;37.460;2023-04-25T09:49:07;8.80;;;3.97;;
58294;SDS011;45705;55.592;37.460;2023-04-25T09:51:56;6.75;;;3.60;;
58294;SDS011;45705;55.592;37.460;2023-04-25T09:54:25;6.38;;;4.00;;
58294;SDS011;45705;55.592;37.460;2023-04-25T09:57:14;10.45;;;3.20;;
58294;SDS011;45705;55.592;37.460;2023-04-25T09:59:49;4.13;;;2.63;;
58294;SDS011;45705;55.592;37.460;2023-04-25T10:02:18;10.80;;;3.10;;
58294;SDS011;45705;55.592;37.460;2023-04-25T10:04:49;6.30;;;3.00;;
58294;SDS011;45705;55.592;37.460;2023-04-25T10:07:25;5.97;;;2.90;;
58294;SDS011;45705;55.592;37.460;2023-04-25T10:09:55;5.60;;;2.83;;
58294;SDS011;45705;55.592;37.460;2023-04-25T10:12:25;5.47;;;2.60;;
58294;SDS011;45705;55.592;37.460;2023-04-25T10:14:52;4.55;;;2.88;;
58294;SDS011;45705;55.592;37.460;2023-04-25T10:17:17;6.05;;;2.72;;
58294;SDS011;45705;55.592;37.460;2023-04-25T10:19:46;7.82;;;2.78;;
58294;SDS011;45705;55.592;37.460;2023-04-25T10:24:44;4.93;;;2.70;;
58294;SDS011;45705;55.592;37.460;2023-04-25T10:27:12;4.15;;;2.70;;
58294;SDS011;45705;55.592;37.460;2023-04-25T10:29:38;6.53;;;2.50;;
58294;SDS011;45705;55.592;37.460;2023-04-25T10:32:04;5.82;;;3.08;;
58294;SDS011;45705;55.592;37.460;2023-04-25T10:37:05;5.28;;;2.88;;
58294;SDS011;45705;55.592;37.460;2023-04-25T10:39:34;5.28;;;2.80;;
58294;SDS011;45705;55.592;37.460;2023-04-25T10:42:01;6.63;;;2.70;;
58294;SDS011;45705;55.592;37.460;2023-04-25T10:44:28;5.80;;;2.97;;
58294;SDS011;45705;55.592;37.460;2023-04-25T10:46:55;5.32;;;2.55;;
58294;SDS011;45705;55.592;37.460;2023-04-25T10:54:57;9.00;;;3.15;;
58294;SDS011;45705;55.592;37.460;2023-04-25T10:57:36;5.65;;;2.85;;
58294;SDS011;45705;55.592;37.460;2023-04-25T11:00:17;5.15;;;2.85;;
58294;SDS011;45705;55.592;37.460;2023-04-25T11:02:45;14.43;;;3.88;;
58294;SDS011;45705;55.592;37.460;2023-04-25T11:05:20;8.18;;;4.13;;
58294;SDS011;45705;55.592;37.460;2023-04-25T11:07:56;4.15;;;3.38;;
58294;SDS011;45705;55.592;37.460;2023-04-25T11:10:26;5.82;;;3.53;;
58294;SDS011;45705;55.592;37.460;2023-04-25T11:12:53;3.92;;;3.00;;
58294;SDS011;45705;55.592;37.460;2023-04-25T11:15:19;3.28;;;2.60;;
58294;SDS011;45705;55.592;37.460;2023-04-25T11:17:45;6.32;;;3.92;;
58294;SDS011;45705;55.592;37.460;2023-04-25T11:20:12;7.30;;;3.97;;
58294;SDS011;45705;55.592;37.460;2023-04-25T11:22:39;15.77;;;5.93;;
58294;SDS011;45705;55.592;37.460;2023-04-25T11:25:06;7.20;;;4.13;;
58294;SDS011;45705;55.592;37.460;2023-04-25T11:27:48;7.20;;;2.50;;
58294;SDS011;45705;55.592;37.460;2023-04-25T11:30:18;3.17;;;2.40;;
58294;SDS011;45705;55.592;37.460;2023-04-25T11:32:45;7.40;;;3.00;;
58294;SDS011;45705;55.592;37.460;2023-04-25T11:35:10;7.97;;;2.88;;
58294;SDS011;45705;55.592;37.460;2023-04-25T11:37:40;9.38;;;2.70;;
58294;SDS011;45705;55.592;37.460;2023-04-25T11:40:06;4.70;;;2.22;;
58294;SDS011;45705;55.592;37.460;2023-04-25T11:42:34;8.48;;;2.10;;
58294;SDS011;45705;55.592;37.460;2023-04-25T11:45:00;13.50;;;5.00;;
58294;SDS011;45705;55.592;37.460;2023-04-25T11:47:29;5.40;;;2.35;;
58294;SDS011;45705;55.592;37.460;2023-04-25T11:49:57;4.97;;;2.05;;
58294;SDS011;45705;55.592;37.460;2023-04-25T11:52:23;3.70;;;2.10;;
58294;SDS011;45705;55.592;37.460;2023-04-25T11:54:49;6.72;;;2.35;;
58294;SDS011;45705;55.592;37.460;2023-04-25T11:57:18;6.13;;;2.35;;
58294;SDS011;45705;55.592;37.460;2023-04-25T11:59:44;5.75;;;2.60;;
58294;SDS011;45705;55.592;37.460;2023-04-25T12:02:23;4.35;;;2.38;;
58294;SDS011;45705;55.592;37.460;2023-04-25T12:04:49;6.63;;;2.67;;
58294;SDS011;45705;55.592;37.460;2023-04-25T12:07:15;5.10;;;2.58;;
58294;SDS011;45705;55.592;37.460;2023-04-25T12:09:41;8.05;;;3.70;;
58294;SDS011;45705;55.592;37.460;2023-04-25T12:12:09;11.52;;;4.63;;
58294;SDS011;45705;55.592;37.460;2023-04-25T12:14:35;7.68;;;3.95;;
58294;SDS011;45705;55.592;37.460;2023-04-25T12:17:02;5.82;;;3.20;;
58294;SDS011;45705;55.592;37.460;2023-04-25T12:19:33;6.63;;;2.45;;
58294;SDS011;45705;55.592;37.460;2023-04-25T12:22:02;4.88;;;2.63;;
58294;SDS011;45705;55.592;37.460;2023-04-25T12:24:44;5.65;;;2.40;;
58294;SDS011;45705;55.592;37.460;2023-04-25T12:27:10;8.52;;;2.58;;
58294;SDS011;45705;55.592;37.460;2023-04-25T12:29:35;7.10;;;2.53;;
58294;SDS011;45705;55.592;37.460;2023-04-25T12:32:01;5.68;;;2.45;;
58294;SDS011;45705;55.592;37.460;2023-04-25T12:34:27;8.63;;;3.28;;
58294;SDS011;45705;55.592;37.460;2023-04-25T12:36:53;4.40;;;2.22;;
58294;SDS011;45705;55.592;37.460;2023-04-25T12:39:20;6.60;;;2.67;;
58294;SDS011;45705;55.592;37.460;2023-04-25T12:41:48;5.95;;;3.30;;
58294;SDS011;45705;55.592;37.460;2023-04-25T12:44:14;5.03;;;2.50;;
58294;SDS011;45705;55.592;37.460;2023-04-25T12:46:40;11.63;;;4.13;;
58294;SDS011;45705;55.592;37.460;2023-04-25T12:49:06;8.02;;;2.50;;
58294;SDS011;45705;55.592;37.460;2023-04-25T12:51:36;6.30;;;2.50;;
58294;SDS011;45705;55.592;37.460;2023-04-25T12:54:02;3.97;;;2.42;;
58294;SDS011;45705;55.592;37.460;2023-04-25T12:56:29;9.57;;;2.50;;
58294;SDS011;45705;55.592;37.460;2023-04-25T12:58:56;4.97;;;2.38;;
58294;SDS011;45705;55.592;37.460;2023-04-25T13:01:22;4.47;;;2.45;;
58294;SDS011;45705;55.592;37.460;2023-04-25T13:03:48;6.60;;;3.20;;
58294;SDS011;45705;55.592;37.460;2023-04-25T13:06:14;5.18;;;2.80;;
58294;SDS011;45705;55.592;37.460;2023-04-25T13:08:41;4.13;;;2.63;;
58294;SDS011;45705;55.592;37.460;2023-04-25T13:11:07;3.58;;;2.40;;
58294;SDS011;45705;55.592;37.460;2023-04-25T13:13:33;7.68;;;2.80;;
58294;SDS011;45705;55.592;37.460;2023-04-25T13:16:09;10.63;;;2.75;;
58294;SDS011;45705;55.592;37.460;2023-04-25T13:18:34;6.45;;;2.90;;
58294;SDS011;45705;55.592;37.460;2023-04-25T13:21:00;5.38;;;2.55;;
58294;SDS011;45705;55.592;37.460;2023-04-25T13:23:27;7.75;;;3.55;;
58294;SDS011;45705;55.592;37.460;2023-04-25T13:25:54;8.27;;;2.78;;
58294;SDS011;45705;55.592;37.460;2023-04-25T13:28:23;3.70;;;2.65;;
58294;SDS011;45705;55.592;37.460;2023-04-25T13:30:49;5.13;;;2.88;;
58294;SDS011;45705;55.592;37.460;2023-04-25T13:33:15;10.20;;;3.20;;
58294;SDS011;45705;55.592;37.460;2023-04-25T13:35:41;6.75;;;2.85;;
58294;SDS011;45705;55.592;37.460;2023-04-25T13:38:07;4.72;;;2.95;;
58294;SDS011;45705;55.592;37.460;2023-04-25T13:40:34;3.95;;;2.85;;
58294;SDS011;45705;55.592;37.460;2023-04-25T13:43:00;9.40;;;3.10;;
58294;SDS011;45705;55.592;37.460;2023-04-25T13:45:27;6.07;;;3.00;;
58294;SDS011;45705;55.592;37.460;2023-04-25T13:47:52;4.70;;;2.92;;
58294;SDS011;45705;55.592;37.460;2023-04-25T13:50:18;6.95;;;3.10;;
58294;SDS011;45705;55.592;37.460;2023-04-25T13:52:44;7.55;;;3.40;;
58294;SDS011;45705;55.592;37.460;2023-04-25T13:55:10;8.65;;;3.28;;
58294;SDS011;45705;55.592;37.460;2023-04-25T13:57:36;9.15;;;3.50;;
58294;SDS011;45705;55.592;37.460;2023-04-25T14:00:02;7.95;;;3.47;;
58294;SDS011;45705;55.592;37.460;2023-04-25T14:02:37;6.25;;;3.30;;
58294;SDS011;45705;55.592;37.460;2023-04-25T14:05:04;5.72;;;3.17;;
58294;SDS011;45705;55.592;37.460;2023-04-25T14:07:30;8.77;;;3.55;;
58294;SDS011;45705;55.592;37.460;2023-04-25T14:09:56;8.48;;;3.70;;
58294;SDS011;45705;55.592;37.460;2023-04-25T14:12:22;9.70;;;3.45;;
58294;SDS011;45705;55.592;37.460;2023-04-25T14:14:48;6.72;;;3.20;;
58294;SDS011;45705;55.592;37.460;2023-04-25T14:17:14;6.43;;;3.20;;
58294;SDS011;45705;55.592;37.460;2023-04-25T14:19:40;4.35;;;3.30;;
58294;SDS011;45705;55.592;37.460;2023-04-25T14:22:08;8.18;;;3.20;;
58294;SDS011;45705;55.592;37.460;2023-04-25T14:24:34;4.95;;;3.30;;
58294;SDS011;45705;55.592;37.460;2023-04-25T14:27:00;7.82;;;2.67;;
58294;SDS011;45705;55.592;37.460;2023-04-25T14:29:26;4.13;;;3.13;;
58294;SDS011;45705;55.592;37.460;2023-04-25T14:31:52;4.22;;;2.65;;
58294;SDS011;45705;55.592;37.460;2023-04-25T14:34:18;3.90;;;2.75;;
58294;SDS011;45705;55.592;37.460;2023-04-25T14:36:45;5.00;;;3.08;;
58294;SDS011;45705;55.592;37.460;2023-04-25T14:39:10;4.45;;;2.88;;
58294;SDS011;45705;55.592;37.460;2023-04-25T14:41:39;5.75;;;3.13;;
58294;SDS011;45705;55.592;37.460;2023-04-25T14:44:04;6.78;;;2.95;;
58294;SDS011;45705;55.592;37.460;2023-04-25T14:46:30;4.13;;;2.60;;
58294;SDS011;45705;55.592;37.460;2023-04-25T14:48:56;5.25;;;2.75;;
58294;SDS011;45705;55.592;37.460;2023-04-25T14:51:21;4.20;;;2.80;;
58294;SDS011;45705;55.592;37.460;2023-04-25T14:53:47;5.35;;;2.80;;
58294;SDS011;45705;55.592;37.460;2023-04-25T14:56:13;9.18;;;3.10;;
58294;SDS011;45705;55.592;37.460;2023-04-25T14:58:39;8.93;;;3.25;;
58294;SDS011;45705;55.592;37.460;2023-04-25T15:01:05;5.53;;;3.13;;
58294;SDS011;45705;55.592;37.460;2023-04-25T15:03:32;7.25;;;2.63;;